sensor_id;sensor_type;location;lat;lon;timestamp;temperature;humidity
21712;DHT22;11017;53.552;9.910;2023-07-20T07:56:25;17.40;99.90
21712;DHT22;11017;53.552;9.910;2023-07-20T07:58:52;19.20;99.90
21712;DHT22;11017;53.552;9.910;2023-07-20T08:01:18;19.30;99.90
21712;DHT22;11017;53.552;9.910;2023-07-20T08:03:45;19.80;99.90
21712;DHT22;11017;53.552;9.910;2023-07-20T08:06:13;19.50;99.90
21712;DHT22;11017;53.552;9.910;2023-07-20T08:08:41;19.30;99.90
21712;DHT22;11017;53.552;9.910;2023-07-20T08:11:08;19.40;99.90
21712;DHT22;11017;53.552;9.910;2023-07-20T08:13:36;19.70;99.90
21712;DHT22;11017;53.552;9.910;2023-07-20T08:16:03;19.40;99.90
21712;DHT22;11017;53.552;9.910;2023-07-20T08:18:30;19.70;99.90
21712;DHT22;11017;53.552;9.910;2023-07-20T08:20:57;19.80;99.90
21712;DHT22;11017;53.552;9.910;2023-07-20T08:23:24;19.90;99.90
21712;DHT22;11017;53.552;9.910;2023-07-20T08:25:54;19.90;99.90
21712;DHT22;11017;53.552;9.910;2023-07-20T08:28:22;19.90;99.90
21712;DHT22;11017;53.552;9.910;2023-07-20T08:30:49;20.20;99.90
21712;DHT22;11017;53.552;9.910;2023-07-20T08:33:17;19.70;99.90
21712;DHT22;11017;53.552;9.910;2023-07-20T08:35:45;20.50;99.90
21712;DHT22;11017;53.552;9.910;2023-07-20T08:38:12;20.70;99.90
21712;DHT22;11017;53.552;9.910;2023-07-20T08:40:41;20.80;99.90
21712;DHT22;11017;53.552;9.910;2023-07-20T08:43:10;20.40;99.90
21712;DHT22;11017;53.552;9.910;2023-07-20T08:45:39;19.80;99.90
21712;DHT22;11017;53.552;9.910;2023-07-20T08:48:07;19.40;99.90
21712;DHT22;11017;53.552;9.910;2023-07-20T08:50:34;19.10;99.90
21712;DHT22;11017;53.552;9.910;2023-07-20T08:53:02;19.50;99.90
21712;DHT22;11017;53.552;9.910;2023-07-20T08:55:29;20.10;99.90
21712;DHT22;11017;53.552;9.910;2023-07-20T08:57:58;20.50;99.90
21712;DHT22;11017;53.552;9.910;2023-07-20T09:00:27;20.60;99.90
21712;DHT22;11017;53.552;9.910;2023-07-20T09:02:55;20.70;99.90
21712;DHT22;11017;53.552;9.910;2023-07-20T09:05:23;21.20;99.90
21712;DHT22;11017;53.552;9.910;2023-07-20T09:07:51;21.90;99.90
21712;DHT22;11017;53.552;9.910;2023-07-20T09:10:18;22.60;99.90
21712;DHT22;11017;53.552;9.910;2023-07-20T09:12:46;22.50;99.90
21712;DHT22;11017;53.552;9.910;2023-07-20T09:15:13;22.30;99.90
21712;DHT22;11017;53.552;9.910;2023-07-20T09:17:45;22.50;99.90
21712;DHT22;11017;53.552;9.910;2023-07-20T09:20:15;22.50;99.90
21712;DHT22;11017;53.552;9.910;2023-07-20T09:22:42;22.60;99.90
21712;DHT22;11017;53.552;9.910;2023-07-20T09:25:11;22.70;99.90
21712;DHT22;11017;53.552;9.910;2023-07-20T09:27:40;22.60;99.90
21712;DHT22;11017;53.552;9.910;2023-07-20T09:30:07;21.70;99.90
21712;DHT22;11017;53.552;9.910;2023-07-20T09:32:42;19.80;99.90
21712;DHT22;11017;53.552;9.910;2023-07-20T09:35:13;18.60;99.90
21712;DHT22;11017;53.552;9.910;2023-07-20T09:37:46;18.00;99.90
21712;DHT22;11017;53.552;9.910;2023-07-20T09:40:15;18.10;99.90
21712;DHT22;11017;53.552;9.910;2023-07-20T09:42:44;17.80;99.90
21712;DHT22;11017;53.552;9.910;2023-07-20T09:45:11;17.90;99.90
21712;DHT22;11017;53.552;9.910;2023-07-20T09:47:38;18.30;99.90
21712;DHT22;11017;53.552;9.910;2023-07-20T09:50:08;19.70;99.90
21712;DHT22;11017;53.552;9.910;2023-07-20T09:52:39;21.30;99.90
21712;DHT22;11017;53.552;9.910;2023-07-20T09:55:07;23.20;99.90
21712;DHT22;11017;53.552;9.910;2023-07-20T09:57:35;24.00;99.90
21712;DHT22;11017;53.552;9.910;2023-07-20T10:00:04;24.30;99.90
21712;DHT22;11017;53.552;9.910;2023-07-20T10:02:41;25.60;99.90
21712;DHT22;11017;53.552;9.910;2023-07-20T10:05:12;25.80;99.90
21712;DHT22;11017;53.552;9.910;2023-07-20T10:07:43;25.80;99.90
21712;DHT22;11017;53.552;9.910;2023-07-20T10:10:11;24.90;99.90
21712;DHT22;11017;53.552;9.910;2023-07-20T10:12:41;24.00;99.90
21712;DHT22;11017;53.552;9.910;2023-07-20T10:15:13;23.20;99.90
21712;DHT22;11017;53.552;9.910;2023-07-20T10:17:49;22.10;99.90
21712;DHT22;11017;53.552;9.910;2023-07-20T10:20:21;21.90;99.90
21712;DHT22;11017;53.552;9.910;2023-07-20T10:22:49;23.20;99.90
21712;DHT22;11017;53.552;9.910;2023-07-20T10:32:44;24.60;99.90
21712;DHT22;11017;53.552;9.910;2023-07-20T10:35:13;25.80;99.90
21712;DHT22;11017;53.552;9.910;2023-07-20T10:50:41;24.40;99.90
21712;DHT22;11017;53.552;9.910;2023-07-20T10:53:13;21.30;99.90
21712;DHT22;11017;53.552;9.910;2023-07-20T10:55:41;23.70;99.90
21712;DHT22;11017;53.552;9.910;2023-07-20T10:58:10;24.20;99.90
21712;DHT22;11017;53.552;9.910;2023-07-20T11:00:57;23.80;99.90
21712;DHT22;11017;53.552;9.910;2023-07-20T11:03:30;22.70;99.90
21712;DHT22;11017;53.552;9.910;2023-07-20T11:06:30;21.10;99.90
21712;DHT22;11017;53.552;9.910;2023-07-20T11:09:08;19.90;99.90
21712;DHT22;11017;53.552;9.910;2023-07-20T11:11:37;19.20;99.90
21712;DHT22;11017;53.552;9.910;2023-07-20T11:14:06;18.80;99.90
21712;DHT22;11017;53.552;9.910;2023-07-20T11:16:35;18.50;99.90
21712;DHT22;11017;53.552;9.910;2023-07-20T11:19:02;18.50;99.90
21712;DHT22;11017;53.552;9.910;2023-07-20T11:21:35;18.70;99.90
21712;DHT22;11017;53.552;9.910;2023-07-20T11:24:04;19.10;99.90
21712;DHT22;11017;53.552;9.910;2023-07-20T11:26:39;20.00;99.90
21712;DHT22;11017;53.552;9.910;2023-07-20T11:29:06;20.50;99.90
21712;DHT22;11017;53.552;9.910;2023-07-20T11:31:35;20.80;99.90
21712;DHT22;11017;53.552;9.910;2023-07-20T11:34:02;21.70;99.90
21712;DHT22;11017;53.552;9.910;2023-07-20T11:36:29;22.00;99.90
21712;DHT22;11017;53.552;9.910;2023-07-20T11:38:57;21.90;99.90
21712;DHT22;11017;53.552;9.910;2023-07-20T11:41:24;22.30;99.90
21712;DHT22;11017;53.552;9.910;2023-07-20T11:43:57;22.50;99.90
21712;DHT22;11017;53.552;9.910;2023-07-20T11:46:28;22.70;99.90
21712;DHT22;11017;53.552;9.910;2023-07-20T11:48:58;22.90;99.90
21712;DHT22;11017;53.552;9.910;2023-07-20T11:51:27;23.70;99.90
21712;DHT22;11017;53.552;9.910;2023-07-20T11:53:54;24.00;99.90
21712;DHT22;11017;53.552;9.910;2023-07-20T11:56:22;23.70;99.90
21712;DHT22;11017;53.552;9.910;2023-07-20T11:58:49;23.30;99.90
21712;DHT22;11017;53.552;9.910;2023-07-20T12:01:19;24.30;99.90
21712;DHT22;11017;53.552;9.910;2023-07-20T12:03:48;24.80;99.90
21712;DHT22;11017;53.552;9.910;2023-07-20T12:06:15;25.30;99.90
21712;DHT22;11017;53.552;9.910;2023-07-20T12:08:43;24.10;99.90
21712;DHT22;11017;53.552;9.910;2023-07-20T12:11:10;23.60;99.90
21712;DHT22;11017;53.552;9.910;2023-07-20T12:13:40;23.90;99.90
21712;DHT22;11017;53.552;9.910;2023-07-20T12:16:12;22.90;99.90
21712;DHT22;11017;53.552;9.910;2023-07-20T12:18:41;22.30;99.90
21712;DHT22;11017;53.552;9.910;2023-07-20T12:21:09;21.50;99.90
21712;DHT22;11017;53.552;9.910;2023-07-20T12:23:38;21.20;99.90
21712;DHT22;11017;53.552;9.910;2023-07-20T12:26:08;21.00;99.90
21712;DHT22;11017;53.552;9.910;2023-07-20T12:28:38;20.60;99.90
21712;DHT22;11017;53.552;9.910;2023-07-20T12:31:07;20.70;99.90
21712;DHT22;11017;53.552;9.910;2023-07-20T12:33:34;20.90;99.90
21712;DHT22;11017;53.552;9.910;2023-07-20T12:36:02;20.70;99.90
21712;DHT22;11017;53.552;9.910;2023-07-20T12:38:30;20.80;99.90
21712;DHT22;11017;53.552;9.910;2023-07-20T12:40:57;20.70;99.90
21712;DHT22;11017;53.552;9.910;2023-07-20T12:43:25;20.80;99.90
21712;DHT22;11017;53.552;9.910;2023-07-20T12:45:52;20.80;99.90
21712;DHT22;11017;53.552;9.910;2023-07-20T12:48:20;21.20;99.90
21712;DHT22;11017;53.552;9.910;2023-07-20T12:50:47;22.30;99.90
21712;DHT22;11017;53.552;9.910;2023-07-20T12:53:15;22.90;99.90
21712;DHT22;11017;53.552;9.910;2023-07-20T12:55:42;23.70;99.90
21712;DHT22;11017;53.552;9.910;2023-07-20T12:58:11;23.90;99.90
21712;DHT22;11017;53.552;9.910;2023-07-20T13:00:38;24.00;99.90
21712;DHT22;11017;53.552;9.910;2023-07-20T13:03:05;23.10;99.90
21712;DHT22;11017;53.552;9.910;2023-07-20T13:05:34;23.30;99.90
21712;DHT22;11017;53.552;9.910;2023-07-20T13:08:01;25.30;99.90
21712;DHT22;11017;53.552;9.910;2023-07-20T13:10:30;26.20;99.90
21712;DHT22;11017;53.552;9.910;2023-07-20T13:12:57;27.10;99.90
21712;DHT22;11017;53.552;9.910;2023-07-20T13:15:29;28.00;99.90
21712;DHT22;11017;53.552;9.910;2023-07-20T13:17:57;27.50;98.60
21712;DHT22;11017;53.552;9.910;2023-07-20T13:20:26;27.90;99.00
21712;DHT22;11017;53.552;9.910;2023-07-20T13:22:53;28.40;99.00
21712;DHT22;11017;53.552;9.910;2023-07-20T13:25:20;28.60;97.00
21712;DHT22;11017;53.552;9.910;2023-07-20T13:27:48;27.90;98.20
21712;DHT22;11017;53.552;9.910;2023-07-20T13:30:15;29.10;96.00
21712;DHT22;11017;53.552;9.910;2023-07-20T13:32:43;29.70;94.40
21712;DHT22;11017;53.552;9.910;2023-07-20T13:35:10;29.90;93.90
21712;DHT22;11017;53.552;9.910;2023-07-20T13:37:40;28.90;92.90
21712;DHT22;11017;53.552;9.910;2023-07-20T13:40:08;29.10;93.00
21712;DHT22;11017;53.552;9.910;2023-07-20T13:42:37;29.10;92.90
21712;DHT22;11017;53.552;9.910;2023-07-20T13:45:08;29.30;91.20
21712;DHT22;11017;53.552;9.910;2023-07-20T13:47:35;28.60;93.50
21712;DHT22;11017;53.552;9.910;2023-07-20T13:50:02;26.90;93.40
21712;DHT22;11017;53.552;9.910;2023-07-20T13:52:29;27.30;94.00
21712;DHT22;11017;53.552;9.910;2023-07-20T13:54:55;26.30;94.10
21712;DHT22;11017;53.552;9.910;2023-07-20T13:57:22;24.80;94.50
21712;DHT22;11017;53.552;9.910;2023-07-20T13:59:49;25.80;96.60
21712;DHT22;11017;53.552;9.910;2023-07-20T14:02:18;27.70;94.30
21712;DHT22;11017;53.552;9.910;2023-07-20T14:04:44;27.40;92.60
21712;DHT22;11017;53.552;9.910;2023-07-20T14:07:11;26.10;94.00
21712;DHT22;11017;53.552;9.910;2023-07-20T14:09:39;25.00;93.90
21712;DHT22;11017;53.552;9.910;2023-07-20T14:12:06;24.60;95.60
21712;DHT22;11017;53.552;9.910;2023-07-20T14:14:34;26.20;97.20
21712;DHT22;11017;53.552;9.910;2023-07-20T14:17:00;26.70;95.40
21712;DHT22;11017;53.552;9.910;2023-07-20T14:19:29;25.70;94.10
21712;DHT22;11017;53.552;9.910;2023-07-20T14:21:56;26.00;94.30
21712;DHT22;11017;53.552;9.910;2023-07-20T14:24:25;27.30;95.20
21712;DHT22;11017;53.552;9.910;2023-07-20T14:26:52;28.00;92.80
21712;DHT22;11017;53.552;9.910;2023-07-20T14:29:20;28.20;92.90
21712;DHT22;11017;53.552;9.910;2023-07-20T14:31:47;29.00;93.00
21712;DHT22;11017;53.552;9.910;2023-07-20T14:34:16;28.50;92.10
21712;DHT22;11017;53.552;9.910;2023-07-20T14:36:45;27.50;92.40
21712;DHT22;11017;53.552;9.910;2023-07-20T14:39:12;27.50;93.10
21712;DHT22;11017;53.552;9.910;2023-07-20T14:41:39;27.40;92.80
21712;DHT22;11017;53.552;9.910;2023-07-20T14:44:06;27.20;93.40
21712;DHT22;11017;53.552;9.910;2023-07-20T14:46:33;27.60;94.30
21712;DHT22;11017;53.552;9.910;2023-07-20T14:49:00;26.70;93.60
21712;DHT22;11017;53.552;9.910;2023-07-20T14:51:28;26.90;93.40
21712;DHT22;11017;53.552;9.910;2023-07-20T14:54:00;26.70;93.70
21712;DHT22;11017;53.552;9.910;2023-07-20T14:56:27;26.30;92.80
21712;DHT22;11017;53.552;9.910;2023-07-20T14:58:53;25.50;93.20
21712;DHT22;11017;53.552;9.910;2023-07-20T15:01:20;25.20;94.90
21712;DHT22;11017;53.552;9.910;2023-07-20T15:03:48;25.20;93.40
21712;DHT22;11017;53.552;9.910;2023-07-20T15:06:18;24.10;94.60
21712;DHT22;11017;53.552;9.910;2023-07-20T15:08:46;24.70;95.00
21712;DHT22;11017;53.552;9.910;2023-07-20T15:11:14;24.40;94.50
21712;DHT22;11017;53.552;9.910;2023-07-20T15:13:41;24.40;95.70
21712;DHT22;11017;53.552;9.910;2023-07-20T15:16:08;24.50;95.90
21712;DHT22;11017;53.552;9.910;2023-07-20T15:18:36;24.60;96.00
21712;DHT22;11017;53.552;9.910;2023-07-20T15:21:03;23.80;97.10
21712;DHT22;11017;53.552;9.910;2023-07-20T15:23:30;24.60;97.70
21712;DHT22;11017;53.552;9.910;2023-07-20T15:25:57;25.90;95.00
21712;DHT22;11017;53.552;9.910;2023-07-20T15:28:25;26.70;95.20
21712;DHT22;11017;53.552;9.910;2023-07-20T15:30:59;27.50;93.20
21712;DHT22;11017;53.552;9.910;2023-07-20T15:33:26;26.70;92.30
21712;DHT22;11017;53.552;9.910;2023-07-20T15:35:53;25.90;94.20
21712;DHT22;11017;53.552;9.910;2023-07-20T15:38:20;26.60;93.60
21712;DHT22;11017;53.552;9.910;2023-07-20T15:40:47;25.20;93.60
21712;DHT22;11017;53.552;9.910;2023-07-20T15:43:14;25.10;93.30
21712;DHT22;11017;53.552;9.910;2023-07-20T15:45:47;25.10;93.30
21712;DHT22;11017;53.552;9.910;2023-07-20T15:48:15;24.40;94.10
21712;DHT22;11017;53.552;9.910;2023-07-20T15:50:42;24.40;95.00
21712;DHT22;11017;53.552;9.910;2023-07-20T15:53:09;25.00;95.50
21712;DHT22;11017;53.552;9.910;2023-07-20T15:55:36;26.70;95.00
21712;DHT22;11017;53.552;9.910;2023-07-20T15:58:03;27.20;93.50
21712;DHT22;11017;53.552;9.910;2023-07-20T16:00:30;27.60;93.60
21712;DHT22;11017;53.552;9.910;2023-07-20T16:02:58;27.30;93.10
21712;DHT22;11017;53.552;9.910;2023-07-20T16:05:25;26.80;93.30
21712;DHT22;11017;53.552;9.910;2023-07-20T16:07:52;26.30;93.70
21712;DHT22;11017;53.552;9.910;2023-07-20T16:10:19;26.50;93.60
21712;DHT22;11017;53.552;9.910;2023-07-20T16:12:46;26.20;92.80
21712;DHT22;11017;53.552;9.910;2023-07-20T16:15:13;25.90;93.20
21712;DHT22;11017;53.552;9.910;2023-07-20T16:17:40;26.70;93.20
21712;DHT22;11017;53.552;9.910;2023-07-20T16:20:09;26.80;93.80
21712;DHT22;11017;53.552;9.910;2023-07-20T16:22:36;27.10;92.60
21712;DHT22;11017;53.552;9.910;2023-07-20T16:25:04;27.00;92.40
21712;DHT22;11017;53.552;9.910;2023-07-20T16:27:30;27.20;92.00
21712;DHT22;11017;53.552;9.910;2023-07-20T16:29:58;26.70;91.90
21712;DHT22;11017;53.552;9.910;2023-07-20T16:32:24;26.70;91.60
21712;DHT22;11017;53.552;9.910;2023-07-20T16:34:51;26.60;91.90
21712;DHT22;11017;53.552;9.910;2023-07-20T16:37:20;26.20;92.40
21712;DHT22;11017;53.552;9.910;2023-07-20T16:39:50;25.90;92.00
21712;DHT22;11017;53.552;9.910;2023-07-20T16:42:17;26.20;92.00
21712;DHT22;11017;53.552;9.910;2023-07-20T16:44:49;26.10;92.60
21712;DHT22;11017;53.552;9.910;2023-07-20T16:47:16;25.60;91.30
21712;DHT22;11017;53.552;9.910;2023-07-20T16:49:43;24.70;92.30
21712;DHT22;11017;53.552;9.910;2023-07-20T16:52:10;25.10;92.00
21712;DHT22;11017;53.552;9.910;2023-07-20T16:54:38;25.40;91.50
21712;DHT22;11017;53.552;9.910;2023-07-20T16:57:06;25.40;92.10
21712;DHT22;11017;53.552;9.910;2023-07-20T16:59:34;25.30;92.70
21712;DHT22;11017;53.552;9.910;2023-07-20T17:02:01;25.40;93.20
21712;DHT22;11017;53.552;9.910;2023-07-20T17:04:28;24.80;94.10
21712;DHT22;11017;53.552;9.910;2023-07-20T17:06:55;24.00;94.40
21712;DHT22;11017;53.552;9.910;2023-07-20T17:09:24;23.40;95.20
21712;DHT22;11017;53.552;9.910;2023-07-20T17:11:52;23.20;96.00
21712;DHT22;11017;53.552;9.910;2023-07-20T17:14:19;22.90;95.70
21712;DHT22;11017;53.552;9.910;2023-07-20T17:16:46;22.20;96.10
21712;DHT22;11017;53.552;9.910;2023-07-20T17:19:13;21.70;97.40
21712;DHT22;11017;53.552;9.910;2023-07-20T17:21:40;21.90;97.30
21712;DHT22;11017;53.552;9.910;2023-07-20T17:24:07;21.90;97.40
21712;DHT22;11017;53.552;9.910;2023-07-20T17:43:49;21.60;97.40
21712;DHT22;11017;53.552;9.910;2023-07-20T17:46:17;20.70;99.80
21712;DHT22;11017;53.552;9.910;2023-07-20T18:03:28;20.60;99.90
21712;DHT22;11017;53.552;9.910;2023-07-20T18:05:55;20.40;99.90
21712;DHT22;11017;53.552;9.910;2023-07-20T18:08:22;20.00;99.90
21712;DHT22;11017;53.552;9.910;2023-07-20T18:10:51;20.00;99.90
21712;DHT22;11017;53.552;9.910;2023-07-20T18:13:17;19.90;99.90
21712;DHT22;11017;53.552;9.910;2023-07-20T18:15:44;19.80;99.90
21712;DHT22;11017;53.552;9.910;2023-07-20T18:18:11;19.90;99.90
21712;DHT22;11017;53.552;9.910;2023-07-20T18:20:39;19.90;99.90
21712;DHT22;11017;53.552;9.910;2023-07-20T18:23:06;19.50;99.90
21712;DHT22;11017;53.552;9.910;2023-07-20T18:25:35;19.40;99.90
21712;DHT22;11017;53.552;9.910;2023-07-20T18:28:04;19.40;99.90
21712;DHT22;11017;53.552;9.910;2023-07-20T18:30:31;19.30;99.90
21712;DHT22;11017;53.552;9.910;2023-07-20T18:33:00;19.60;99.90
21712;DHT22;11017;53.552;9.910;2023-07-20T18:35:27;19.60;99.90
21712;DHT22;11017;53.552;9.910;2023-07-20T18:37:57;19.70;99.90
21712;DHT22;11017;53.552;9.910;2023-07-20T18:40:24;19.70;99.90
21712;DHT22;11017;53.552;9.910;2023-07-20T18:42:52;19.70;99.90
21712;DHT22;11017;53.552;9.910;2023-07-20T18:45:19;19.60;99.90
21712;DHT22;11017;53.552;9.910;2023-07-20T18:47:46;19.40;99.90
21712;DHT22;11017;53.552;9.910;2023-07-20T18:50:14;19.40;99.90
21712;DHT22;11017;53.552;9.910;2023-07-20T18:52:41;19.60;99.90
21712;DHT22;11017;53.552;9.910;2023-07-20T18:55:10;19.50;99.90
21712;DHT22;11017;53.552;9.910;2023-07-20T18:57:37;19.40;99.90
21712;DHT22;11017;53.552;9.910;2023-07-20T19:00:07;19.40;99.90
21712;DHT22;11017;53.552;9.910;2023-07-20T19:02:39;19.20;99.90
21712;DHT22;11017;53.552;9.910;2023-07-20T19:05:06;19.30;99.90
21712;DHT22;11017;53.552;9.910;2023-07-20T19:07:33;19.30;99.90
21712;DHT22;11017;53.552;9.910;2023-07-20T19:10:02;19.20;99.90
21712;DHT22;11017;53.552;9.910;2023-07-20T19:12:31;19.20;99.90
21712;DHT22;11017;53.552;9.910;2023-07-20T19:14:58;19.00;99.90
21712;DHT22;11017;53.552;9.910;2023-07-20T19:17:27;19.00;99.90
21712;DHT22;11017;53.552;9.910;2023-07-20T19:19:55;19.00;99.90
21712;DHT22;11017;53.552;9.910;2023-07-20T19:22:22;18.90;99.90
21712;DHT22;11017;53.552;9.910;2023-07-20T19:24:49;19.00;99.90
21712;DHT22;11017;53.552;9.910;2023-07-20T19:27:16;19.00;99.90
21712;DHT22;11017;53.552;9.910;2023-07-20T19:29:45;19.00;99.90
21712;DHT22;11017;53.552;9.910;2023-07-20T19:32:11;19.10;99.90
21712;DHT22;11017;53.552;9.910;2023-07-20T19:34:38;19.20;99.90
21712;DHT22;11017;53.552;9.910;2023-07-20T19:37:06;19.10;99.90
21712;DHT22;11017;53.552;9.910;2023-07-20T19:39:33;19.10;99.90
21712;DHT22;11017;53.552;9.910;2023-07-20T19:42:00;18.90;99.90
21712;DHT22;11017;53.552;9.910;2023-07-20T19:44:26;18.90;99.90
21712;DHT22;11017;53.552;9.910;2023-07-20T19:46:55;19.00;99.90
21712;DHT22;11017;53.552;9.910;2023-07-20T19:49:22;19.00;99.90
21712;DHT22;11017;53.552;9.910;2023-07-20T19:51:49;18.90;99.90
21712;DHT22;11017;53.552;9.910;2023-07-20T19:54:16;19.00;99.90
21712;DHT22;11017;53.552;9.910;2023-07-20T19:56:43;18.90;99.90
21712;DHT22;11017;53.552;9.910;2023-07-20T19:59:11;19.00;99.90
21712;DHT22;11017;53.552;9.910;2023-07-20T20:01:38;18.90;99.90
21712;DHT22;11017;53.552;9.910;2023-07-20T20:04:07;19.00;99.90
21712;DHT22;11017;53.552;9.910;2023-07-20T20:06:34;19.00;99.90
21712;DHT22;11017;53.552;9.910;2023-07-20T20:09:01;19.00;99.90
21712;DHT22;11017;53.552;9.910;2023-07-20T20:11:28;18.90;99.90
21712;DHT22;11017;53.552;9.910;2023-07-20T20:13:55;18.90;99.90
21712;DHT22;11017;53.552;9.910;2023-07-20T20:16:22;18.90;99.90
21712;DHT22;11017;53.552;9.910;2023-07-20T20:18:49;18.90;99.90
21712;DHT22;11017;53.552;9.910;2023-07-20T20:21:17;19.00;99.90
21712;DHT22;11017;53.552;9.910;2023-07-20T20:23:48;19.00;99.90
21712;DHT22;11017;53.552;9.910;2023-07-20T20:26:15;19.00;99.90
21712;DHT22;11017;53.552;9.910;2023-07-20T20:28:42;18.90;99.90
21712;DHT22;11017;53.552;9.910;2023-07-20T20:31:09;19.00;99.90
21712;DHT22;11017;53.552;9.910;2023-07-20T20:33:36;18.90;99.90
21712;DHT22;11017;53.552;9.910;2023-07-20T20:36:03;18.80;99.90
21712;DHT22;11017;53.552;9.910;2023-07-20T20:38:33;18.70;99.90
21712;DHT22;11017;53.552;9.910;2023-07-20T20:41:00;18.70;99.90
21712;DHT22;11017;53.552;9.910;2023-07-20T20:43:27;18.60;99.90
21712;DHT22;11017;53.552;9.910;2023-07-20T20:46:00;18.60;99.90
21712;DHT22;11017;53.552;9.910;2023-07-20T20:48:28;18.40;99.90
21712;DHT22;11017;53.552;9.910;2023-07-20T20:50:55;18.30;99.90
21712;DHT22;11017;53.552;9.910;2023-07-20T20:53:22;18.20;99.90
21712;DHT22;11017;53.552;9.910;2023-07-20T20:55:50;18.30;99.90
21712;DHT22;11017;53.552;9.910;2023-07-20T20:58:17;18.70;99.90
21712;DHT22;11017;53.552;9.910;2023-07-20T21:00:44;18.20;99.90
21712;DHT22;11017;53.552;9.910;2023-07-20T21:03:11;18.20;99.90
21712;DHT22;11017;53.552;9.910;2023-07-20T21:05:38;18.00;99.90
21712;DHT22;11017;53.552;9.910;2023-07-20T21:08:05;18.00;99.90
21712;DHT22;11017;53.552;9.910;2023-07-20T21:10:32;18.00;99.90
21712;DHT22;11017;53.552;9.910;2023-07-20T21:13:01;17.90;99.90
21712;DHT22;11017;53.552;9.910;2023-07-20T21:15:29;17.80;99.90
21712;DHT22;11017;53.552;9.910;2023-07-20T21:17:56;17.60;99.90
21712;DHT22;11017;53.552;9.910;2023-07-20T21:20:23;17.70;99.90
21712;DHT22;11017;53.552;9.910;2023-07-20T21:22:50;17.70;99.90
21712;DHT22;11017;53.552;9.910;2023-07-20T21:25:17;17.60;99.90
21712;DHT22;11017;53.552;9.910;2023-07-20T21:27:44;17.50;99.90
21712;DHT22;11017;53.552;9.910;2023-07-20T21:30:13;17.40;99.90
21712;DHT22;11017;53.552;9.910;2023-07-20T21:32:40;17.40;99.90
21712;DHT22;11017;53.552;9.910;2023-07-20T21:35:07;17.40;99.90
21712;DHT22;11017;53.552;9.910;2023-07-20T21:37:35;17.30;99.90
21712;DHT22;11017;53.552;9.910;2023-07-20T21:40:02;17.40;99.90
21712;DHT22;11017;53.552;9.910;2023-07-20T21:42:29;17.30;99.90
21712;DHT22;11017;53.552;9.910;2023-07-20T21:44:56;17.40;99.90
21712;DHT22;11017;53.552;9.910;2023-07-20T21:47:25;17.30;99.90
21712;DHT22;11017;53.552;9.910;2023-07-20T21:49:52;17.30;99.90
21712;DHT22;11017;53.552;9.910;2023-07-20T21:52:19;17.30;99.90
21712;DHT22;11017;53.552;9.910;2023-07-20T21:54:45;17.40;99.90
21712;DHT22;11017;53.552;9.910;2023-07-20T21:57:12;17.40;99.90
21712;DHT22;11017;53.552;9.910;2023-07-20T21:59:39;17.40;99.90
21712;DHT22;11017;53.552;9.910;2023-07-20T22:02:06;17.50;99.90
21712;DHT22;11017;53.552;9.910;2023-07-20T22:04:34;17.50;99.90
21712;DHT22;11017;53.552;9.910;2023-07-20T22:07:01;17.60;99.90
21712;DHT22;11017;53.552;9.910;2023-07-20T22:09:28;17.60;99.90
21712;DHT22;11017;53.552;9.910;2023-07-20T22:11:55;17.50;99.90
21712;DHT22;11017;53.552;9.910;2023-07-20T22:14:22;17.40;99.90
21712;DHT22;11017;53.552;9.910;2023-07-20T22:16:49;17.40;99.90
21712;DHT22;11017;53.552;9.910;2023-07-20T22:19:16;17.50;99.90
21712;DHT22;11017;53.552;9.910;2023-07-20T22:21:45;17.50;99.90
21712;DHT22;11017;53.552;9.910;2023-07-20T22:24:12;17.60;99.90
21712;DHT22;11017;53.552;9.910;2023-07-20T22:26:40;17.70;99.90
21712;DHT22;11017;53.552;9.910;2023-07-20T22:29:07;17.70;99.90
21712;DHT22;11017;53.552;9.910;2023-07-20T22:31:34;17.70;99.90
21712;DHT22;11017;53.552;9.910;2023-07-20T22:34:06;17.70;99.90
21712;DHT22;11017;53.552;9.910;2023-07-20T22:36:33;17.60;99.90
21712;DHT22;11017;53.552;9.910;2023-07-20T22:39:01;17.70;99.90
21712;DHT22;11017;53.552;9.910;2023-07-20T22:41:29;17.80;99.90
21712;DHT22;11017;53.552;9.910;2023-07-20T22:43:56;17.80;99.90
21712;DHT22;11017;53.552;9.910;2023-07-20T22:46:23;17.80;99.90
21712;DHT22;11017;53.552;9.910;2023-07-20T22:48:49;17.60;99.90
21712;DHT22;11017;53.552;9.910;2023-07-20T22:51:16;17.60;99.90
21712;DHT22;11017;53.552;9.910;2023-07-20T22:53:43;17.60;99.90
21712;DHT22;11017;53.552;9.910;2023-07-20T22:56:11;17.60;99.90
21712;DHT22;11017;53.552;9.910;2023-07-20T22:58:38;17.70;99.90
21712;DHT22;11017;53.552;9.910;2023-07-20T23:01:08;17.70;99.90
21712;DHT22;11017;53.552;9.910;2023-07-20T23:03:36;17.70;99.90
21712;DHT22;11017;53.552;9.910;2023-07-20T23:06:03;17.60;99.90
21712;DHT22;11017;53.552;9.910;2023-07-20T23:08:30;17.70;99.90
21712;DHT22;11017;53.552;9.910;2023-07-20T23:10:58;17.60;99.90
21712;DHT22;11017;53.552;9.910;2023-07-20T23:13:26;17.70;99.90
21712;DHT22;11017;53.552;9.910;2023-07-20T23:15:54;17.70;99.90
21712;DHT22;11017;53.552;9.910;2023-07-20T23:18:21;17.70;99.90
21712;DHT22;11017;53.552;9.910;2023-07-20T23:20:50;17.70;99.90
21712;DHT22;11017;53.552;9.910;2023-07-20T23:23:19;17.70;99.90
21712;DHT22;11017;53.552;9.910;2023-07-20T23:25:51;17.70;99.90
21712;DHT22;11017;53.552;9.910;2023-07-20T23:28:18;17.70;99.90
21712;DHT22;11017;53.552;9.910;2023-07-20T23:30:47;17.70;99.90
21712;DHT22;11017;53.552;9.910;2023-07-20T23:33:15;17.70;99.90
21712;DHT22;11017;53.552;9.910;2023-07-20T23:35:42;17.60;99.90
21712;DHT22;11017;53.552;9.910;2023-07-20T23:38:09;17.60;99.90
21712;DHT22;11017;53.552;9.910;2023-07-20T23:40:36;17.50;99.90
21712;DHT22;11017;53.552;9.910;2023-07-20T23:43:04;17.50;99.90
21712;DHT22;11017;53.552;9.910;2023-07-20T23:45:31;17.50;99.90
21712;DHT22;11017;53.552;9.910;2023-07-20T23:48:00;17.50;99.90
21712;DHT22;11017;53.552;9.910;2023-07-20T23:50:28;17.40;99.90
21712;DHT22;11017;53.552;9.910;2023-07-20T23:52:55;17.40;99.90
21712;DHT22;11017;53.552;9.910;2023-07-20T23:55:22;17.40;99.90
21712;DHT22;11017;53.552;9.910;2023-07-20T23:57:51;17.40;99.90
